Time;durP1;ratioP1;P1;durP2;ratioP2;P2;SDS_P1;SDS_P2;PMS_P1;PMS_P2;Temp;Humidity;BMP_temperature;BMP_pressure;BME280_temperature;BME280_humidity;BME280_pressure;Samples;Min_cycle;Max_cycle;Signal;HPM_P1;HPM_P2
2023/07/22 00:01:34;;;;;;;4.13;1.23;;;;;;;;;;5091964;28;20016;-58
2023/07/22 00:04:01;;;;;;;0.67;0.60;;;;;;;;;;5094343;28;20407;-58
2023/07/22 00:06:28;;;;;;;1.10;0.90;;;;;;;;;;5094222;28;20484;-58
2023/07/22 00:08:55;;;;;;;1.00;0.70;;;;;;;;;;5094159;28;20020;-58
2023/07/22 00:14:25;;;;;;;0.40;0.40;;;;;;;;;;5088777;28;20035;-58
2023/07/22 00:16:52;;;;;;;0.40;0.40;;;;;;;;;;5088433;28;20028;-58
2023/07/22 00:19:19;;;;;;;1.30;0.87;;;;;;;;;;5088343;28;20478;-58
2023/07/22 00:21:45;;;;;;;0.93;0.63;;;;;;;;;;5088192;28;20506;-58
2023/07/22 00:24:12;;;;;;;1.90;0.97;;;;;;;;;;5091993;28;20028;-58
2023/07/22 00:26:39;;;;;;;1.10;0.67;;;;;;;;;;5093287;28;20100;-58
2023/07/22 00:29:06;;;;;;;2.70;1.10;;;;;;;;;;5093819;28;20028;-58
2023/07/22 00:31:32;;;;;;;1.60;0.77;;;;;;;;;;5093801;28;20359;-58
2023/07/22 00:33:59;;;;;;;3.03;1.50;;;;;;;;;;5093661;28;20103;-58
2023/07/22 00:36:26;;;;;;;1.67;1.03;;;;;;;;;;5089506;28;20031;-58
2023/07/22 00:38:53;;;;;;;1.93;1.07;;;;;;;;;;5088203;28;20043;-59
2023/07/22 00:41:20;;;;;;;1.00;0.67;;;;;;;;;;5088055;28;20107;-58
2023/07/22 00:43:46;;;;;;;1.63;0.80;;;;;;;;;;5087667;28;20112;-58
2023/07/22 00:46:13;;;;;;;1.47;1.00;;;;;;;;;;5091090;28;20020;-58
2023/07/22 00:48:40;;;;;;;2.03;1.10;;;;;;;;;;5093338;28;20024;-58
2023/07/22 00:51:07;;;;;;;3.80;1.20;;;;;;;;;;5093250;28;20036;-58
2023/07/22 00:53:34;;;;;;;0.80;0.57;;;;;;;;;;5107981;28;20035;-58
2023/07/22 00:56:00;;;;;;;3.50;1.50;;;;;;;;;;5113609;28;20016;-57
2023/07/22 00:58:27;;;;;;;1.70;0.97;;;;;;;;;;5110112;28;20070;-58
2023/07/22 01:00:54;;;;;;;2.13;0.90;;;;;;;;;;5107737;28;20027;-58
2023/07/22 01:03:21;;;;;;;6.37;1.30;;;;;;;;;;5107854;28;20027;-58
2023/07/22 01:05:51;;;;;;;3.90;1.20;;;;;;;;;;5108096;28;20069;-57
2023/07/22 01:08:18;;;;;;;1.07;0.80;;;;;;;;;;5110322;28;20107;-58
2023/07/22 01:10:45;;;;;;;0.73;0.60;;;;;;;;;;5113289;28;20022;-58
2023/07/22 01:13:11;;;;;;;2.17;0.83;;;;;;;;;;5113356;28;20019;-57
2023/07/22 01:15:39;;;;;;;3.37;1.43;;;;;;;;;;5113184;28;20383;-58
2023/07/22 01:18:06;;;;;;;2.33;1.30;;;;;;;;;;5112902;28;20031;-58
2023/07/22 01:20:33;;;;;;;13.20;0.70;;;;;;;;;;5110243;28;20404;-57
2023/07/22 01:23:00;;;;;;;7.80;0.80;;;;;;;;;;5106920;28;20027;-58
2023/07/22 01:25:27;;;;;;;1.50;1.07;;;;;;;;;;5107398;28;20031;-58
2023/07/22 01:27:54;;;;;;;0.97;0.77;;;;;;;;;;5107628;28;20027;-58
2023/07/22 01:30:21;;;;;;;4.20;1.00;;;;;;;;;;5109422;28;20054;-57
2023/07/22 01:32:48;;;;;;;16.73;2.20;;;;;;;;;;5112817;28;20020;-58
2023/07/22 01:35:14;;;;;;;2.20;1.27;;;;;;;;;;5112529;28;20148;-58
2023/07/22 01:37:41;;;;;;;3.37;1.43;;;;;;;;;;5112877;28;20035;-57
2023/07/22 01:40:11;;;;;;;1.33;0.77;;;;;;;;;;5112844;28;20114;-57
2023/07/22 01:42:42;;;;;;;4.27;1.10;;;;;;;;;;5110479;28;20031;-58
2023/07/22 01:45:10;;;;;;;5.03;1.23;;;;;;;;;;5107319;28;20023;-57
2023/07/22 01:47:37;;;;;;;6.13;2.30;;;;;;;;;;5107085;28;20089;-57
2023/07/22 01:50:07;;;;;;;2.43;1.30;;;;;;;;;;5107028;28;20584;-57
2023/07/22 01:52:34;;;;;;;3.20;1.13;;;;;;;;;;5108511;28;20028;-58
2023/07/22 01:55:01;;;;;;;2.63;1.13;;;;;;;;;;5112705;28;20020;-57
2023/07/22 01:57:27;;;;;;;3.83;1.13;;;;;;;;;;5112725;28;20052;-58
2023/07/22 01:59:54;;;;;;;1.23;0.80;;;;;;;;;;5112478;28;20036;-58
2023/07/22 02:02:21;;;;;;;0.87;0.60;;;;;;;;;;5112668;28;20058;-57
2023/07/22 02:04:48;;;;;;;2.63;1.07;;;;;;;;;;5110942;28;20348;-57
2023/07/22 02:07:15;;;;;;;3.47;1.00;;;;;;;;;;5106747;28;20030;-58
2023/07/22 02:09:41;;;;;;;4.50;1.03;;;;;;;;;;5107045;28;20031;-58
2023/07/22 02:12:10;;;;;;;3.20;1.67;;;;;;;;;;5107500;28;20434;-57
2023/07/22 02:14:37;;;;;;;1.77;1.10;;;;;;;;;;5107640;28;20031;-57
2023/07/22 02:17:04;;;;;;;2.33;1.50;;;;;;;;;;5112311;28;20023;-58
2023/07/22 02:19:30;;;;;;;3.67;1.63;;;;;;;;;;5112546;28;20020;-58
2023/07/22 02:21:57;;;;;;;1.80;1.27;;;;;;;;;;5112400;28;20058;-57
2023/07/22 02:24:24;;;;;;;1.93;1.37;;;;;;;;;;5112003;28;20028;-58
2023/07/22 02:26:51;;;;;;;15.87;2.00;;;;;;;;;;5111663;28;20099;-57
2023/07/22 02:29:19;;;;;;;2.97;1.40;;;;;;;;;;5106755;28;20032;-58
2023/07/22 02:31:50;;;;;;;2.33;1.30;;;;;;;;;;5106948;28;20462;-58
2023/07/22 02:34:17;;;;;;;6.57;1.73;;;;;;;;;;5109391;28;20040;-58
2023/07/22 02:36:43;;;;;;;2.07;1.10;;;;;;;;;;5111051;28;20024;-58
2023/07/22 02:39:10;;;;;;;2.10;0.97;;;;;;;;;;5115856;28;20115;-58
2023/07/22 02:41:37;;;;;;;4.33;1.20;;;;;;;;;;5116228;28;20028;-58
2023/07/22 02:44:04;;;;;;;5.87;1.67;;;;;;;;;;5116215;28;20684;-58
2023/07/22 02:46:31;;;;;;;4.13;1.73;;;;;;;;;;5116125;28;20024;-57
2023/07/22 02:48:59;;;;;;;2.67;1.20;;;;;;;;;;5115952;28;20039;-57
2023/07/22 02:51:25;;;;;;;1.90;1.37;;;;;;;;;;5110530;28;20027;-58
2023/07/22 02:53:52;;;;;;;1.93;1.23;;;;;;;;;;5110370;28;20378;-58
2023/07/22 02:56:19;;;;;;;5.37;1.67;;;;;;;;;;5110090;28;20059;-58
2023/07/22 02:58:46;;;;;;;8.03;2.53;;;;;;;;;;5110230;28;20390;-58
2023/07/22 03:01:13;;;;;;;5.43;1.90;;;;;;;;;;5115061;28;20562;-57
2023/07/22 03:03:40;;;;;;;2.90;1.77;;;;;;;;;;5115770;28;20089;-57
2023/07/22 03:06:07;;;;;;;8.33;2.10;;;;;;;;;;5115650;28;20359;-57
2023/07/22 03:08:34;;;;;;;5.40;1.53;;;;;;;;;;5115468;28;20062;-57
2023/07/22 03:11:01;;;;;;;2.00;1.50;;;;;;;;;;5115572;28;20482;-58
2023/07/22 03:13:29;;;;;;;5.00;2.13;;;;;;;;;;5110335;28;20023;-58
2023/07/22 03:15:56;;;;;;;3.17;1.70;;;;;;;;;;5110139;28;20028;-58
2023/07/22 03:18:23;;;;;;;6.83;2.57;;;;;;;;;;5110109;28;20501;-57
2023/07/22 03:20:51;;;;;;;2.87;1.57;;;;;;;;;;5109854;28;20027;-57
2023/07/22 03:23:19;;;;;;;3.53;1.77;;;;;;;;;;5113983;28;20035;-57
2023/07/22 03:25:46;;;;;;;2.23;1.13;;;;;;;;;;5115199;28;20024;-57
2023/07/22 03:28:12;;;;;;;3.50;1.60;;;;;;;;;;5115243;28;20027;-58
2023/07/22 03:30:39;;;;;;;9.70;1.57;;;;;;;;;;5114976;28;20051;-58
2023/07/22 03:33:06;;;;;;;4.57;1.20;;;;;;;;;;5115420;28;20024;-59
2023/07/22 03:35:34;;;;;;;2.70;0.90;;;;;;;;;;5110876;28;20378;-57
2023/07/22 03:38:01;;;;;;;3.23;1.70;;;;;;;;;;5109446;28;20126;-58
2023/07/22 03:40:29;;;;;;;6.40;1.80;;;;;;;;;;5109537;28;20032;-57
2023/07/22 03:42:57;;;;;;;2.37;1.47;;;;;;;;;;5109240;28;20119;-58
2023/07/22 03:45:24;;;;;;;4.87;1.40;;;;;;;;;;5112051;28;20052;-58
2023/07/22 03:47:52;;;;;;;3.13;1.13;;;;;;;;;;5114894;28;20028;-58
2023/07/22 03:50:19;;;;;;;2.73;1.43;;;;;;;;;;5114723;28;20032;-58
2023/07/22 03:52:46;;;;;;;1.50;1.03;;;;;;;;;;5114697;28;20024;-58
2023/07/22 03:55:13;;;;;;;2.93;1.20;;;;;;;;;;5114886;28;20028;-58
2023/07/22 03:57:40;;;;;;;3.20;1.53;;;;;;;;;;5110705;28;20034;-58
2023/07/22 04:00:10;;;;;;;6.00;1.60;;;;;;;;;;5109257;28;20024;-59
2023/07/22 04:02:37;;;;;;;2.23;1.40;;;;;;;;;;5108718;28;20046;-58
2023/07/22 04:05:04;;;;;;;1.30;0.87;;;;;;;;;;5109342;28;20030;-58
2023/07/22 04:07:31;;;;;;;2.93;1.37;;;;;;;;;;5111998;28;20020;-58
2023/07/22 04:09:57;;;;;;;1.53;1.07;;;;;;;;;;5114537;28;20019;-59
2023/07/22 04:12:24;;;;;;;2.97;1.47;;;;;;;;;;5114567;28;20031;-58
2023/07/22 04:14:51;;;;;;;3.27;1.30;;;;;;;;;;5114501;28;20023;-58
2023/07/22 04:17:18;;;;;;;6.60;2.00;;;;;;;;;;5114332;28;20023;-58
2023/07/22 04:19:44;;;;;;;3.00;1.47;;;;;;;;;;5110975;28;20116;-58
2023/07/22 04:22:20;;;;;;;5.40;1.77;;;;;;;;;;5108951;28;20028;-58
2023/07/22 04:24:50;;;;;;;10.27;1.57;;;;;;;;;;5108897;28;20023;-58
2023/07/22 04:27:17;;;;;;;5.83;1.20;;;;;;;;;;5109000;28;20106;-58
2023/07/22 04:29:44;;;;;;;2.83;1.07;;;;;;;;;;5111681;28;20428;-58
2023/07/22 04:32:11;;;;;;;2.77;1.50;;;;;;;;;;5114074;28;20103;-58
2023/07/22 04:34:38;;;;;;;2.90;1.33;;;;;;;;;;5113617;28;20019;-59
2023/07/22 04:37:05;;;;;;;3.07;1.40;;;;;;;;;;5114121;28;20023;-58
2023/07/22 04:39:31;;;;;;;15.77;1.73;;;;;;;;;;5113875;28;20097;-58
2023/07/22 04:41:58;;;;;;;3.20;1.20;;;;;;;;;;5110948;28;20103;-58
2023/07/22 04:44:25;;;;;;;5.60;1.30;;;;;;;;;;5108544;28;20023;-58
2023/07/22 04:46:52;;;;;;;8.43;1.63;;;;;;;;;;5108694;28;20077;-58
2023/07/22 04:49:19;;;;;;;2.07;1.23;;;;;;;;;;5108647;28;20058;-58
2023/07/22 04:51:46;;;;;;;3.37;1.17;;;;;;;;;;5110120;28;20089;-59
2023/07/22 04:54:13;;;;;;;2.27;1.23;;;;;;;;;;5093148;28;20036;-58
2023/07/22 04:56:40;;;;;;;6.60;1.30;;;;;;;;;;5093221;28;20034;-58
2023/07/22 04:59:07;;;;;;;10.77;1.10;;;;;;;;;;5093271;28;20028;-58
2023/07/22 05:01:34;;;;;;;11.33;1.10;;;;;;;;;;5093239;28;20020;-58
2023/07/22 05:04:01;;;;;;;1.17;0.80;;;;;;;;;;5090817;28;20071;-58
2023/07/22 05:06:29;;;;;;;8.37;1.80;;;;;;;;;;5087769;28;20048;-58
2023/07/22 05:08:56;;;;;;;4.87;1.90;;;;;;;;;;5087070;28;20020;-58
2023/07/22 05:11:23;;;;;;;1.67;1.00;;;;;;;;;;5087877;28;20028;-58
2023/07/22 05:13:50;;;;;;;2.20;1.33;;;;;;;;;;5089138;28;20024;-58
2023/07/22 05:16:16;;;;;;;2.43;1.20;;;;;;;;;;5093103;28;20031;-58
2023/07/22 05:18:43;;;;;;;7.87;1.03;;;;;;;;;;5107683;27;20052;-58
2023/07/22 05:21:10;;;;;;;3.43;1.33;;;;;;;;;;5127097;27;20023;-58
2023/07/22 05:23:37;;;;;;;1.90;1.17;;;;;;;;;;5117005;27;20470;-57
2023/07/22 05:26:04;;;;;;;8.83;2.40;;;;;;;;;;5111999;27;20474;-58
2023/07/22 05:28:30;;;;;;;6.60;2.00;;;;;;;;;;5128353;27;20482;-58
2023/07/22 05:30:57;;;;;;;1.43;1.00;;;;;;;;;;5128411;27;20027;-57
2023/07/22 05:33:24;;;;;;;7.97;1.67;;;;;;;;;;5128503;27;20110;-58
2023/07/22 05:35:51;;;;;;;3.03;1.37;;;;;;;;;;5117199;27;20023;-58
2023/07/22 05:38:17;;;;;;;2.67;1.40;;;;;;;;;;5112758;28;20110;-58
2023/07/22 05:40:44;;;;;;;5.27;1.50;;;;;;;;;;5113086;28;20028;-58
2023/07/22 05:43:11;;;;;;;14.30;1.47;;;;;;;;;;5112483;28;20088;-58
2023/07/22 05:45:38;;;;;;;4.23;1.63;;;;;;;;;;5113057;28;20020;-58
2023/07/22 05:48:05;;;;;;;4.40;1.57;;;;;;;;;;5112013;28;20054;-58
2023/07/22 05:50:32;;;;;;;2.63;1.33;;;;;;;;;;5107594;28;20028;-58
2023/07/22 05:52:58;;;;;;;4.17;1.97;;;;;;;;;;5107232;28;20425;-58
2023/07/22 05:55:26;;;;;;;5.07;1.53;;;;;;;;;;5107510;28;20571;-58
2023/07/22 05:57:53;;;;;;;4.40;2.00;;;;;;;;;;5107321;28;20073;-59
2023/07/22 06:00:20;;;;;;;7.53;1.77;;;;;;;;;;5112497;28;20099;-58
2023/07/22 06:02:47;;;;;;;9.77;1.27;;;;;;;;;;5112718;28;20024;-58
2023/07/22 06:05:14;;;;;;;2.23;1.30;;;;;;;;;;5112477;28;20023;-59
2023/07/22 06:07:41;;;;;;;4.07;1.83;;;;;;;;;;5112733;28;20474;-58
2023/07/22 06:10:08;;;;;;;3.13;1.50;;;;;;;;;;5116809;28;20470;-57
2023/07/22 06:12:35;;;;;;;7.50;1.93;;;;;;;;;;5111217;28;20036;-58
2023/07/22 06:15:02;;;;;;;3.67;1.63;;;;;;;;;;5111378;28;20031;-58
2023/07/22 06:17:29;;;;;;;1.77;1.13;;;;;;;;;;5111010;28;20057;-58
2023/07/22 06:19:55;;;;;;;4.87;1.33;;;;;;;;;;5111340;28;20038;-58
2023/07/22 06:22:22;;;;;;;2.20;1.30;;;;;;;;;;5116173;28;20129;-57
2023/07/22 06:24:49;;;;;;;3.17;1.87;;;;;;;;;;5116608;28;20034;-58
2023/07/22 06:27:16;;;;;;;21.37;1.83;;;;;;;;;;5116514;28;20023;-58
2023/07/22 06:29:43;;;;;;;4.60;1.97;;;;;;;;;;5116445;28;20028;-58
2023/07/22 06:32:09;;;;;;;2.73;1.17;;;;;;;;;;5116610;28;20031;-58
2023/07/22 06:34:36;;;;;;;5.67;1.77;;;;;;;;;;5110779;28;20032;-58
2023/07/22 06:37:03;;;;;;;17.93;1.73;;;;;;;;;;5111210;28;20027;-57
2023/07/22 06:39:29;;;;;;;8.33;1.73;;;;;;;;;;5110923;28;20462;-58
2023/07/22 06:41:56;;;;;;;4.13;1.33;;;;;;;;;;5110966;28;20094;-58
2023/07/22 06:44:23;;;;;;;8.87;2.47;;;;;;;;;;5115202;28;20046;-58
2023/07/22 06:46:50;;;;;;;1.10;0.80;;;;;;;;;;5116254;28;20471;-58
2023/07/22 06:49:17;;;;;;;3.33;1.97;;;;;;;;;;5116220;28;20474;-58
2023/07/22 06:51:43;;;;;;;5.10;2.13;;;;;;;;;;5115305;28;20020;-58
2023/07/22 06:54:10;;;;;;;3.93;1.67;;;;;;;;;;5116023;28;20490;-58
2023/07/22 06:56:37;;;;;;;3.47;1.77;;;;;;;;;;5111528;28;20036;-57
2023/07/22 06:59:04;;;;;;;12.50;1.47;;;;;;;;;;5110511;28;20544;-58
2023/07/22 07:01:31;;;;;;;2.33;1.43;;;;;;;;;;5110693;28;20474;-58
2023/07/22 07:03:57;;;;;;;2.17;1.30;;;;;;;;;;5110536;28;20394;-57
2023/07/22 07:06:24;;;;;;;12.00;2.53;;;;;;;;;;5114381;28;20374;-58
2023/07/22 07:08:52;;;;;;;5.50;2.07;;;;;;;;;;5115684;28;20374;-58
2023/07/22 07:11:18;;;;;;;2.53;1.47;;;;;;;;;;5115764;28;20027;-58
2023/07/22 07:13:45;;;;;;;6.63;2.93;;;;;;;;;;5115798;28;20034;-58
2023/07/22 07:16:26;;;;;;;3.43;1.97;;;;;;;;;;5115508;28;20042;-58
2023/07/22 07:18:53;;;;;;;3.83;1.40;;;;;;;;;;5110946;28;20028;-58
2023/07/22 07:21:20;;;;;;;4.90;1.90;;;;;;;;;;5109231;28;20027;-58
2023/07/22 07:23:47;;;;;;;1.60;1.27;;;;;;;;;;5109852;28;20016;-58
2023/07/22 07:26:13;;;;;;;2.30;1.40;;;;;;;;;;5109830;28;20051;-57
2023/07/22 07:28:40;;;;;;;1.67;1.30;;;;;;;;;;5113565;28;20551;-58
2023/07/22 07:31:07;;;;;;;5.20;1.70;;;;;;;;;;5115243;28;20020;-58
2023/07/22 07:33:34;;;;;;;3.80;1.83;;;;;;;;;;5115388;28;20084;-58
2023/07/22 07:36:02;;;;;;;4.53;1.67;;;;;;;;;;5115172;28;20478;-58
2023/07/22 07:38:29;;;;;;;2.70;1.50;;;;;;;;;;5114938;28;20047;-58
2023/07/22 07:41:01;;;;;;;9.17;1.80;;;;;;;;;;5111530;28;20388;-58
2023/07/22 07:43:28;;;;;;;4.77;1.30;;;;;;;;;;5109667;28;20041;-57
2023/07/22 07:46:13;;;;;;;3.33;1.60;;;;;;;;;;5109804;28;20024;-58
2023/07/22 07:48:40;;;;;;;2.35;1.52;;;;;;;;;;5109680;28;20035;-58
2023/07/22 07:51:07;;;;;;;4.30;1.57;;;;;;;;;;5113026;28;20028;-57
2023/07/22 07:53:34;;;;;;;2.13;1.40;;;;;;;;;;5114833;28;20036;-58
2023/07/22 07:56:00;;;;;;;5.63;1.63;;;;;;;;;;5115099;28;20031;-58
2023/07/22 07:58:27;;;;;;;1.47;0.97;;;;;;;;;;5114879;28;20032;-58
2023/07/22 08:00:54;;;;;;;2.17;1.17;;;;;;;;;;5114578;28;20031;-58
2023/07/22 08:03:21;;;;;;;23.70;2.77;;;;;;;;;;5110925;28;20030;-58
2023/07/22 08:05:48;;;;;;;6.03;1.73;;;;;;;;;;5109455;28;20058;-59
2023/07/22 08:08:14;;;;;;;2.83;1.40;;;;;;;;;;5108984;28;20466;-58
2023/07/22 08:10:43;;;;;;;1.90;1.13;;;;;;;;;;5109271;28;20020;-58
2023/07/22 08:13:09;;;;;;;2.77;1.47;;;;;;;;;;5112270;28;20105;-58
2023/07/22 08:15:36;;;;;;;1.53;1.03;;;;;;;;;;5114570;28;20028;-58
2023/07/22 08:18:03;;;;;;;6.80;2.00;;;;;;;;;;5114098;28;20127;-57
2023/07/22 08:20:30;;;;;;;1.27;0.80;;;;;;;;;;5114219;28;20482;-58
2023/07/22 08:22:57;;;;;;;2.13;1.10;;;;;;;;;;5114464;28;20031;-58
2023/07/22 08:25:24;;;;;;;2.87;1.40;;;;;;;;;;5110656;28;20066;-59
2023/07/22 08:27:51;;;;;;;2.27;1.37;;;;;;;;;;5108909;28;20023;-58
2023/07/22 08:30:17;;;;;;;3.20;1.57;;;;;;;;;;5108946;28;20089;-58
2023/07/22 08:32:44;;;;;;;2.37;1.67;;;;;;;;;;5108470;28;20059;-57
2023/07/22 08:35:11;;;;;;;3.00;1.70;;;;;;;;;;5111333;28;20023;-58
2023/07/22 08:37:37;;;;;;;13.23;1.50;;;;;;;;;;5114080;28;20020;-58
2023/07/22 08:40:05;;;;;;;1.37;1.03;;;;;;;;;;5113979;28;20031;-58
2023/07/22 08:42:33;;;;;;;0.83;0.80;;;;;;;;;;5113768;28;20110;-58
2023/07/22 08:45:02;;;;;;;1.10;0.90;;;;;;;;;;5113749;28;20027;-58
2023/07/22 08:47:30;;;;;;;3.23;1.40;;;;;;;;;;5111183;28;20020;-58
2023/07/22 08:49:58;;;;;;;3.03;1.03;;;;;;;;;;5108561;28;20049;-57
2023/07/22 08:52:25;;;;;;;3.33;1.53;;;;;;;;;;5108061;28;20027;-58
2023/07/22 08:54:52;;;;;;;5.60;0.80;;;;;;;;;;5108538;28;20027;-58
2023/07/22 08:57:20;;;;;;;2.50;1.13;;;;;;;;;;5110063;28;20047;-57
2023/07/22 08:59:47;;;;;;;3.07;1.60;;;;;;;;;;5113614;28;20035;-57
2023/07/22 09:02:14;;;;;;;2.63;1.23;;;;;;;;;;5113609;28;20418;-58
2023/07/22 09:04:42;;;;;;;2.47;1.23;;;;;;;;;;5113536;28;20024;-59
2023/07/22 09:07:09;;;;;;;4.80;1.63;;;;;;;;;;5113441;28;20019;-58
2023/07/22 09:09:35;;;;;;;3.50;1.60;;;;;;;;;;5110827;28;20028;-57
2023/07/22 09:12:02;;;;;;;4.67;2.10;;;;;;;;;;5107917;28;20024;-57
2023/07/22 09:14:31;;;;;;;1.67;1.00;;;;;;;;;;5108063;28;20496;-57
2023/07/22 09:16:59;;;;;;;4.93;1.60;;;;;;;;;;5107864;28;20034;-58
2023/07/22 09:19:26;;;;;;;4.33;1.50;;;;;;;;;;5109626;28;20039;-57
2023/07/22 09:21:53;;;;;;;2.83;1.17;;;;;;;;;;5113280;28;20390;-58
2023/07/22 09:24:24;;;;;;;1.37;0.80;;;;;;;;;;5113583;28;20336;-57
2023/07/22 09:26:51;;;;;;;2.27;1.57;;;;;;;;;;5113000;28;20085;-58
2023/07/22 09:29:18;;;;;;;4.43;1.37;;;;;;;;;;5112987;28;20028;-58
2023/07/22 09:31:52;;;;;;;1.90;1.23;;;;;;;;;;5110980;28;20020;-57
2023/07/22 09:34:19;;;;;;;2.03;1.23;;;;;;;;;;5107758;28;20024;-58
2023/07/22 09:36:53;;;;;;;2.30;1.37;;;;;;;;;;5107532;28;20027;-58
2023/07/22 09:39:20;;;;;;;3.43;1.73;;;;;;;;;;5107748;28;20032;-57
2023/07/22 09:41:47;;;;;;;20.97;1.43;;;;;;;;;;5108993;28;20020;-57
2023/07/22 09:44:13;;;;;;;1.70;1.10;;;;;;;;;;5112108;28;20090;-57
2023/07/22 09:46:40;;;;;;;6.70;2.10;;;;;;;;;;5112784;28;20024;-57
2023/07/22 09:49:09;;;;;;;3.53;1.40;;;;;;;;;;5112913;28;20024;-58
2023/07/22 09:51:36;;;;;;;2.77;1.47;;;;;;;;;;5112948;28;20020;-57
2023/07/22 09:54:04;;;;;;;3.70;1.57;;;;;;;;;;5110380;28;20027;-57
2023/07/22 09:56:31;;;;;;;2.07;1.33;;;;;;;;;;5107352;28;20018;-57
2023/07/22 09:59:05;;;;;;;10.03;1.43;;;;;;;;;;5107269;28;20435;-57
2023/07/22 10:01:33;;;;;;;1.57;1.10;;;;;;;;;;5107294;28;20523;-58
2023/07/22 10:04:00;;;;;;;2.93;1.47;;;;;;;;;;5109134;28;20024;-57
2023/07/22 10:06:29;;;;;;;2.40;1.47;;;;;;;;;;5112843;28;20028;-58
2023/07/22 10:08:57;;;;;;;2.93;0.87;;;;;;;;;;5112735;28;20497;-58
2023/07/22 10:11:26;;;;;;;1.73;1.17;;;;;;;;;;5112019;28;20055;-57
2023/07/22 10:13:54;;;;;;;2.83;1.33;;;;;;;;;;5112575;28;20023;-57
2023/07/22 10:16:20;;;;;;;1.47;1.07;;;;;;;;;;5109939;28;20106;-57
2023/07/22 10:18:49;;;;;;;2.63;1.33;;;;;;;;;;5107114;28;20057;-57
2023/07/22 10:21:16;;;;;;;2.80;1.40;;;;;;;;;;5107055;28;20030;-57
2023/07/22 10:23:45;;;;;;;1.60;0.97;;;;;;;;;;5107224;28;20081;-57
2023/07/22 10:26:14;;;;;;;2.17;0.93;;;;;;;;;;5108127;28;20034;-57
2023/07/22 10:28:42;;;;;;;2.30;1.00;;;;;;;;;;5112214;28;20031;-57
2023/07/22 10:31:08;;;;;;;2.07;1.27;;;;;;;;;;5112479;28;20032;-57
2023/07/22 10:33:36;;;;;;;2.40;1.30;;;;;;;;;;5112245;28;20031;-57
2023/07/22 10:36:06;;;;;;;2.27;1.50;;;;;;;;;;5112244;28;20054;-57
2023/07/22 10:38:34;;;;;;;2.97;1.27;;;;;;;;;;5110387;28;20342;-58
2023/07/22 10:41:01;;;;;;;3.97;1.47;;;;;;;;;;5106582;28;20030;-57
2023/07/22 10:43:31;;;;;;;2.07;1.30;;;;;;;;;;5107087;28;20020;-58
2023/07/22 10:45:59;;;;;;;1.37;1.20;;;;;;;;;;5106970;28;20487;-57
2023/07/22 10:48:35;;;;;;;9.20;1.70;;;;;;;;;;5108130;28;20019;-58
2023/07/22 10:51:15;;;;;;;3.63;1.50;;;;;;;;;;5112121;28;20579;-57
2023/07/22 10:53:45;;;;;;;1.73;1.20;;;;;;;;;;5111745;28;20043;-58
2023/07/22 10:56:14;;;;;;;4.07;1.57;;;;;;;;;;5116017;28;20039;-57
2023/07/22 10:58:47;;;;;;;1.37;1.00;;;;;;;;;;5115829;28;20482;-58
2023/07/22 11:01:27;;;;;;;6.10;1.43;;;;;;;;;;5113205;28;20421;-57
2023/07/22 11:04:06;;;;;;;1.87;1.03;;;;;;;;;;5110086;28;20518;-58
2023/07/22 11:06:33;;;;;;;10.67;1.13;;;;;;;;;;5110487;28;20024;-58
2023/07/22 11:09:00;;;;;;;8.97;1.70;;;;;;;;;;5110510;28;20110;-57
2023/07/22 11:11:40;;;;;;;4.13;1.80;;;;;;;;;;5113294;28;20072;-57
2023/07/22 11:14:16;;;;;;;2.10;1.50;;;;;;;;;;5115345;28;20041;-57
2023/07/22 11:16:45;;;;;;;1.80;1.20;;;;;;;;;;5115756;28;20321;-57
2023/07/22 11:19:14;;;;;;;6.60;1.50;;;;;;;;;;5115659;28;20059;-57
2023/07/22 11:21:41;;;;;;;0.90;0.70;;;;;;;;;;5115494;28;20019;-57
2023/07/22 11:24:08;;;;;;;4.80;1.53;;;;;;;;;;5111361;28;20055;-58
2023/07/22 11:26:36;;;;;;;1.93;1.07;;;;;;;;;;5109920;28;20380;-58
2023/07/22 11:29:03;;;;;;;2.80;0.80;;;;;;;;;;5109711;28;20478;-57
2023/07/22 11:31:34;;;;;;;1.57;0.90;;;;;;;;;;5110157;28;20031;-57
2023/07/22 11:34:01;;;;;;;1.70;1.00;;;;;;;;;;5113307;28;20102;-57
2023/07/22 11:36:28;;;;;;;3.07;1.67;;;;;;;;;;5115332;28;20027;-58
2023/07/22 11:38:54;;;;;;;2.60;1.43;;;;;;;;;;5115255;28;20031;-57
2023/07/22 11:41:21;;;;;;;1.33;1.07;;;;;;;;;;5115287;28;20024;-57
2023/07/22 11:43:48;;;;;;;1.23;1.10;;;;;;;;;;5114606;28;20107;-57
2023/07/22 11:46:15;;;;;;;4.27;1.07;;;;;;;;;;5111572;28;20024;-57
2023/07/22 11:48:50;;;;;;;3.90;0.70;;;;;;;;;;5109722;28;20046;-57
2023/07/22 11:51:18;;;;;;;17.48;1.40;;;;;;;;;;5109600;28;20024;-57
2023/07/22 11:53:47;;;;;;;3.50;1.40;;;;;;;;;;5109316;28;20063;-57
2023/07/22 11:56:18;;;;;;;2.03;0.87;;;;;;;;;;5112634;28;20032;-57
2023/07/22 11:58:49;;;;;;;1.80;0.90;;;;;;;;;;5114894;28;20474;-57
2023/07/22 12:01:16;;;;;;;1.70;0.83;;;;;;;;;;5114767;28;20168;-57
2023/07/22 12:03:42;;;;;;;2.20;0.80;;;;;;;;;;5114741;28;20049;-57
2023/07/22 12:06:10;;;;;;;0.60;0.50;;;;;;;;;;5113998;28;20019;-57
2023/07/22 12:08:37;;;;;;;1.73;1.00;;;;;;;;;;5110639;28;20019;-57
2023/07/22 12:11:04;;;;;;;2.10;0.63;;;;;;;;;;5109427;28;20047;-57
2023/07/22 12:13:36;;;;;;;2.23;0.93;;;;;;;;;;5108853;28;20026;-57
2023/07/22 12:16:04;;;;;;;6.17;1.50;;;;;;;;;;5108735;28;20019;-57
2023/07/22 12:18:47;;;;;;;1.30;1.00;;;;;;;;;;5112303;28;20107;-57
2023/07/22 12:21:15;;;;;;;9.23;1.70;;;;;;;;;;5114468;28;20418;-57
2023/07/22 12:23:42;;;;;;;4.33;1.77;;;;;;;;;;5113948;28;20061;-57
2023/07/22 12:26:09;;;;;;;6.80;1.77;;;;;;;;;;5114145;28;20023;-57
2023/07/22 12:28:36;;;;;;;0.90;0.80;;;;;;;;;;5114363;28;20027;-57
2023/07/22 12:31:03;;;;;;;1.93;1.20;;;;;;;;;;5109980;28;20084;-58
2023/07/22 12:33:31;;;;;;;10.90;1.20;;;;;;;;;;5108746;28;20015;-58
2023/07/22 12:35:58;;;;;;;1.20;1.00;;;;;;;;;;5108640;28;20108;-57
2023/07/22 12:38:24;;;;;;;2.53;1.63;;;;;;;;;;5108581;28;20063;-57
2023/07/22 12:40:51;;;;;;;2.43;1.37;;;;;;;;;;5111722;28;20493;-57
2023/07/22 12:43:18;;;;;;;3.07;1.10;;;;;;;;;;5114132;28;20494;-57
2023/07/22 12:45:45;;;;;;;3.20;1.60;;;;;;;;;;5114107;28;20023;-57
2023/07/22 12:48:12;;;;;;;19.53;3.67;;;;;;;;;;5114177;28;20028;-57
2023/07/22 12:50:38;;;;;;;3.30;1.90;;;;;;;;;;5113573;28;20027;-57
2023/07/22 12:53:05;;;;;;;2.23;1.43;;;;;;;;;;5110114;28;20084;-57
2023/07/22 12:55:32;;;;;;;2.00;1.20;;;;;;;;;;5108724;28;20374;-57
2023/07/22 12:57:59;;;;;;;1.97;1.30;;;;;;;;;;5108307;28;20066;-58
2023/07/22 13:00:26;;;;;;;2.00;1.43;;;;;;;;;;5108264;28;20047;-57
2023/07/22 13:02:52;;;;;;;7.87;1.87;;;;;;;;;;5110744;28;20024;-57
2023/07/22 13:05:19;;;;;;;1.80;1.30;;;;;;;;;;5113554;28;20088;-58
2023/07/22 13:07:46;;;;;;;2.43;1.50;;;;;;;;;;5113263;28;20023;-58
2023/07/22 13:10:16;;;;;;;5.50;1.80;;;;;;;;;;5113337;28;20007;-58
2023/07/22 13:12:43;;;;;;;12.43;1.43;;;;;;;;;;5112973;28;20020;-57
2023/07/22 13:15:10;;;;;;;3.03;1.63;;;;;;;;;;5110420;28;20020;-57
2023/07/22 13:17:37;;;;;;;3.23;1.60;;;;;;;;;;5108092;28;20474;-57
2023/07/22 13:20:08;;;;;;;2.77;1.30;;;;;;;;;;5107893;28;20074;-57
2023/07/22 13:22:36;;;;;;;5.47;2.30;;;;;;;;;;5107992;28;20030;-57
2023/07/22 13:25:03;;;;;;;4.80;2.97;;;;;;;;;;5110236;28;20031;-57
2023/07/22 13:27:30;;;;;;;3.13;2.10;;;;;;;;;;5112862;28;20027;-58
2023/07/22 13:29:57;;;;;;;5.83;2.30;;;;;;;;;;5113111;28;20409;-57
2023/07/22 13:32:24;;;;;;;3.47;1.83;;;;;;;;;;5113062;28;20034;-58
2023/07/22 13:34:51;;;;;;;4.90;2.20;;;;;;;;;;5113163;28;20108;-57
2023/07/22 13:37:17;;;;;;;3.43;1.93;;;;;;;;;;5110317;28;20026;-58
2023/07/22 13:39:44;;;;;;;7.83;1.93;;;;;;;;;;5107674;28;20035;-58
2023/07/22 13:42:11;;;;;;;6.47;2.33;;;;;;;;;;5107427;28;20032;-57
2023/07/22 13:44:38;;;;;;;4.67;2.57;;;;;;;;;;5107235;28;20030;-58
2023/07/22 13:47:05;;;;;;;4.40;2.10;;;;;;;;;;5109548;28;20494;-57
2023/07/22 13:49:31;;;;;;;3.50;1.70;;;;;;;;;;5112846;28;20031;-57
2023/07/22 13:51:58;;;;;;;2.13;1.33;;;;;;;;;;5112769;28;20028;-57
2023/07/22 13:54:25;;;;;;;1.73;1.30;;;;;;;;;;5112718;28;20070;-57
2023/07/22 13:56:52;;;;;;;2.67;1.40;;;;;;;;;;5112719;28;20016;-58
2023/07/22 13:59:18;;;;;;;4.67;2.27;;;;;;;;;;5109987;28;20027;-57
2023/07/22 14:01:45;;;;;;;6.30;2.23;;;;;;;;;;5107243;28;20059;-58
2023/07/22 14:04:12;;;;;;;2.13;1.50;;;;;;;;;;5107406;28;20030;-57
2023/07/22 14:06:39;;;;;;;2.77;1.57;;;;;;;;;;5107411;28;20079;-57
2023/07/22 14:09:05;;;;;;;2.50;1.20;;;;;;;;;;5108933;28;20457;-58
2023/07/22 14:11:32;;;;;;;3.03;1.70;;;;;;;;;;5112803;28;20476;-58
2023/07/22 14:13:59;;;;;;;7.97;2.00;;;;;;;;;;5112705;28;20107;-57
2023/07/22 14:16:26;;;;;;;2.00;1.37;;;;;;;;;;5112338;28;20497;-57
2023/07/22 14:18:52;;;;;;;1.80;1.30;;;;;;;;;;5112382;28;20549;-57
2023/07/22 14:21:20;;;;;;;1.10;0.93;;;;;;;;;;5110890;28;20031;-58
2023/07/22 14:23:46;;;;;;;2.17;1.50;;;;;;;;;;5106978;28;20055;-58
2023/07/22 14:26:13;;;;;;;1.47;1.00;;;;;;;;;;5107157;28;20020;-58
2023/07/22 14:28:40;;;;;;;2.20;1.40;;;;;;;;;;5107280;28;20020;-58
2023/07/22 14:31:07;;;;;;;3.27;1.40;;;;;;;;;;5111899;28;20031;-58
2023/07/22 14:33:33;;;;;;;2.70;0.97;;;;;;;;;;5116046;28;20023;-58
2023/07/22 14:36:00;;;;;;;2.97;1.67;;;;;;;;;;5116776;28;20035;-57
2023/07/22 14:38:27;;;;;;;5.57;1.70;;;;;;;;;;5116338;28;20386;-58
2023/07/22 14:40:54;;;;;;;2.57;1.57;;;;;;;;;;5116260;28;20032;-58
2023/07/22 14:43:21;;;;;;;7.17;2.03;;;;;;;;;;5115269;28;20034;-58
2023/07/22 14:45:48;;;;;;;5.50;1.43;;;;;;;;;;5110884;28;20080;-58
2023/07/22 14:48:14;;;;;;;1.40;0.67;;;;;;;;;;5110918;28;20032;-58